Aerodrome Latest Weathers

# Airport/Station Observation Time (Local Time) Wind Visibility (km) Weather Temp. (°C) Dewdrop (°C) Air Pressure (hPa)
Direction (from) Speed (km/h)
1 Maimun Saleh - Sabang 2018-06-21 11:00:00 WIB Tenang 8.0 Berawan 30 23 1013
2 Sultan Iskandar Muda - Banda Aceh 2018-06-21 11:00:00 WIB Barat 3.7 >=10 Cerah - berawan 30 24 1012
3 Cut Nyak Dien Nagan Raya - Meulaboh, NAD 2018-06-21 11:00:00 WIB Barat 5.6 8.0 Berawan 31 27 1011
4 Malikussaleh - Lhokseumawe 2018-06-21 11:00:00 WIB Tenggara 18.5 7.0 Cerah - berawan 30 24 1012
5 Binaka - Gunung Sitoli 2018-06-21 11:00:00 WIB Utara 7.4 >=10 Berawan 31 27 1010
6 Kualanamu International Airport - Deli Serdang 2018-06-21 11:00:00 WIB Timur 5.6 3.5 Guntur dan hujan ringan 24 23 1013
7 Dr. Ferdinand Lumban Tobing - Pinangsori (Sibolga) 2018-06-21 11:00:00 WIB Barat Laut 5.6 >=10 Cerah - berawan 29 27 1011
8 Aek Godang - Padang Sidempuan 2018-06-21 11:00:00 WIB Timur Laut 9.3 6.0 Berawan 27 23 1012
9 Minangkabau International Airport - Padang 2018-06-21 11:00:00 WIB Barat Daya 5.6 >=10 Berawan 30 26 1010
10 Sultan Syarif Kasim II - Pekanbaru 2018-06-21 11:00:00 WIB Selatan 18.5 >=10 Berawan 32 24 1009
11 Japura - Rengat 2018-06-21 11:00:00 WIB Selatan 11.1 7.0 Berawan 31 25 1011
12 Fatmawati Sukarno - Bengkulu 2018-06-21 11:00:00 WIB Timur 7.4 >=10 Cerah - berawan 33 23 1009
13 Seibati - Tanjung Balai Karimun 2018-06-21 11:00:00 WIB Timur Laut 9.3 8.0 Berawan 31 26 1010
14 Sultan Thaha - Jambi 2018-06-21 11:00:00 WIB Tenggara 11.1 >=10 Berawan 31 25 1011
15 Hang Nadim - Batam 2018-06-21 11:00:00 WIB Tenggara 9.3 >=10 Berawan 30 26 1013
16 Raja Haji Fisabilillah - Tanjung Pinang 2018-06-21 11:00:00 WIB Selatan 20.4 >=10 Berawan 32 25 1012
17 Dabo - Singkep 2018-06-21 11:00:00 WIB Selatan 13.0 9.0 Berawan 31 26 1011
18 Sultan Mahmud Badaruddin II - Palembang 2018-06-21 11:00:00 WIB Timur 14.8 >=10 Berawan 32 26 1011
19 Radin Inten II - Lampung 2018-06-21 11:00:00 WIB Timur 7.4 >=10 Hujan ringan 25 23 1013
20 Astra Ksetra - Lampung 2018-06-21 09:00:00 WIB Selatan 9.3 7.0 Cerah - berawan 27 25 1011
21 Depati Amir - Pangkal Pinang 2018-06-21 11:00:00 WIB Tenggara 18.5 >=10 Berawan 31 26 1011
22 Budiarto - Curug 2018-06-21 11:00:00 WIB Timur 13.0 >=10 Cerah - berawan 32 25 1012
23 Soekarno Hatta - Jakarta 2018-06-21 11:00:00 WIB Timur Laut 18.5 >=10 Cerah - berawan 31 24 1012
24 Atang Sendjaja - Bogor 2018-06-21 11:00:00 WIB Barat Laut 5.6 5.0 Udara kabur 29 24 1011
25 Halim Perdanakusuma - Jakarta 2018-06-21 10:00:00 WIB Timur Laut 18.5 6.0 Cerah - berawan 30 23 1012
26 Husein Sastranegara - Bandung 2018-06-21 11:00:00 WIB Tenggara 18.5 >=10 Berawan 29 19 1017
27 H.A.S. Hanandjoeddin - Tanjung Pandan 2018-06-21 11:00:00 WIB Tenggara 14.8 >=10 Berawan 32 24 1011
28 Wiriadinata - Cibeureum, Tasikmalaya 2018-06-21 11:00:00 WIB Timur 9.3 4.0 Udara kabur 26 23 1016
29 Tunggul Wulung 2018-06-21 11:00:00 WIB Selatan 16.7 7.0 Berawan 27 25 1012
30 Supadio - Pontianak 2018-06-21 11:00:00 WIB Timur Laut 9.3 >=10 Berawan 32 24 1011
31 Rahadi Osman - Ketapang 2018-06-21 11:00:00 WIB Timur 9.3 >=10 Cerah - berawan 31 27 1011
32 Ahmad Yani - Semarang 2018-06-21 11:00:00 WIB Timur 20.4 8.0 Berawan 32 21 1012
33 Adisutjipto - Yogyakarta 2018-06-21 11:00:00 WIB Tenggara 7.4 8.0 Berawan 29 23 1012
34 Adi Soemarmo - Surakarta 2018-06-21 11:00:00 WIB Tenang 8.0 Berawan 30 24 1013
35 Iswahjudi - Madiun 2018-06-21 11:00:00 WIB Selatan 13.0 9.0 Cerah - berawan 29 22 1014
36 Susilo - Sintang 2018-06-21 11:00:00 WIB Tenang 7.0 Berawan 31 24 1012
37 Iskandar - Pangkalan Bun 2018-06-21 11:00:00 WIB Timur 9.3 >=10 Berawan 29 23 1012
38 Nanga Pinoh 2018-06-21 11:00:00 WIB Tenggara 5.6 >=10 Berawan 30 24 1012
39 Abdulrachman Saleh - Malang 2018-06-21 11:00:00 WIB Barat Daya 9.3 6.0 Cerah - berawan 26 22 1016
40 Juanda - Surabaya 2018-06-21 11:00:00 WIB Tenggara 16.7 >=10 Berawan 30 25 1012
41 Pangsuma - Putussibau 2018-06-21 11:00:00 WIB Selatan 5.6 >=10 Berawan 31 23 1013
42 Haji Asan - Sampit 2018-06-21 11:00:00 WIB Timur 5.6 >=10 Berawan 30 23 1012
43 Noto Hadinegoro - Jember 2018-06-21 11:00:00 WIB Barat Daya 7.4 7.0 Berawan 27 23 1014
44 Tjilik Riwut - Palangkaraya 2018-06-21 11:00:00 WIB Timur Laut 7.4 >=10 Cerah - berawan 30 24 1013
45 Blimbingsari - Banyuwangi 2018-06-21 10:00:00 WIB Barat 5.6 7.0 Berawan 27 26 1014
46 Beringin - Muara Teweh 2018-06-21 11:00:00 WIB Tenang >=10 Berawan 30 24 1012
47 Sanggu - Buntok 2018-06-21 11:00:00 WIB Barat Laut 14.8 >=10 Berawan 30 24 1013
48 H. Hasan Aroeboesman 2018-06-21 11:00:00 WIB Tenggara 9.3 8.0 Berawan 29 25 1012
49 Syamsudin Noor - Banjarmasin 2018-06-21 12:00:00 WITA Timur Laut 7.4 >=10 Berawan 31 24 1011
50 Ngurah Rai - Denpasar 2018-06-21 12:00:00 WITA Timur 25.9 >=10 Berawan 28 25 1013
51 Yuvai Semaring - Long Bawang 2018-06-21 11:00:00 WITA Selatan 7.4 >=10 Berawan 26 21 1018
52 Bandara Internasional Lombok - Praya 2018-06-21 12:00:00 WITA Selatan 24.1 >=10 Berawan 29 24 1014
53 Gusti Sjamsir Alam - Kota Baru 2018-06-21 12:00:00 WITA Barat Laut 3.7 8.0 Berawan 28 23 1011
54 Sepinggan - Balikpapan 2018-06-21 12:00:00 WITA Barat Laut 3.7 >=10 Cerah - berawan 28 24 1012
55 Temindung - Samarinda 2018-06-21 12:00:00 WITA Utara 7.4 >=10 Berawan 29 24 1013
56 Tanjung Harapan - Tanjung Selor 2018-06-21 12:00:00 WITA Tenang 5.0 Cerah - berawan 28 25 1012
57 Sultan Muhammad Kaharuddin - Sumbawa Besar 2018-06-21 12:00:00 WITA Timur Laut 5.6 >=10 Berawan 31 24 1012
58 Kalimarau - Tanjung Redeb 2018-06-21 11:00:00 WITA Barat 7.4 >=10 Berawan 31 24 1014
59 Juwata - Tarakan 2018-06-21 12:00:00 WITA Selatan 9.3 >=10 Berawan 30 24 1012
60 Nunukan 2018-06-21 12:00:00 WITA Selatan 11.1 8.0 Cerah - berawan 30 23 1011
61 Sultan Muhammad Salahuddin - Bima 2018-06-21 12:00:00 WITA Selatan 22.2 >=10 Berawan 31 24 1013
62 Tambolaka - Sumba Barat 2018-06-21 12:00:00 WITA Barat Laut 13.0 >=10 Cerah - berawan 31 21 1014
63 Sultan Hasanuddin - Makassar 2018-06-21 12:00:00 WITA Selatan 11.1 >=10 Berawan 31 24 1012
64 Pongtiku - Tana Toraja 2018-06-21 11:00:00 WITA Timur Laut 5.6 >=10 Berawan 26 20 1012
65 Komodo - Labuan Bajo 2018-06-21 12:00:00 WITA Barat Laut 9.3 >=10 Berawan 30 22 1013
66 Mutiara - Palu 2018-06-21 12:00:00 WITA Barat Laut 20.4 9.0 Berawan 31 24 1013
67 Umbu Mehang Kunda - Waingapu 2018-06-21 12:00:00 WITA Timur 20.4 >=10 Berawan 32 22 1013
68 Frans Sales Lega - Ruteng 2018-06-21 12:00:00 WITA Utara 7.4 >=10 Cerah - berawan 25 18 1011
69 Kasiguncu - Poso 2018-06-21 12:00:00 WITA Utara 14.8 9.0 Berawan 30 25 1011
70 Sultan Bantilan - Toli Toli 2018-06-21 11:00:00 WITA Barat Laut 7.4 >=10 Cerah - berawan 30 24 1012
71 Tardamu - Sabu 2018-06-21 12:00:00 WITA Selatan 13.0 >=10 Berawan 30 23 1014
72 Fransiskus Xaverius Seda - Maumere 2018-06-21 11:00:00 WITA Selatan 7.4 7.0 Berawan 28 25 1013
73 Wolter Monginsidi - Kendari 2018-06-21 12:00:00 WITA Barat Laut 9.3 2.0 Guntur dan hujan ringan 26 26 1014
74 Beto Ambari - Bau Bau 2018-06-21 12:00:00 WITA Tenggara 5.6 7.0 Berawan 25 24 1014
75 Djalaluddin - Gorontalo 2018-06-21 12:00:00 WITA Selatan 5.6 >=10 Berawan 31 25 1009
76 Gewayantana - Larantuka 2018-06-21 12:00:00 WITA Selatan 16.7 >=10 Cerah - berawan 32 22 1011
77 David Constantijn Saudale / Lekunik - Rote 2018-06-21 12:00:00 WITA Timur 24.1 >=10 Berawan 29 22 1019
78 El Tari - Kupang 2018-06-21 12:00:00 WITA Timur 29.6 >=10 Berawan 30 22 1013
79 Mali Kalabahi - Alor 2018-06-21 12:00:00 WITA Timur Laut 13.0 >=10 Cerah - berawan 30 23 1012
80 A.A. Bere Talo 2018-06-21 10:00:00 WITA Selatan 13.0 >=10 Cerah - berawan 29 20 1015
81 Sam Ratulangi - Manado 2018-06-21 12:00:00 WITA Barat 9.3 >=10 Berawan 30 23 1011
82 Emalamo - Sanana 2018-06-21 13:00:00 WIT Timur 3.7 >=10 Berawan 31 25 1011
83 Namlea 2018-06-21 11:00:00 WIT Timur 9.3 >=10 Cerah - berawan 30 25 1010
84 Sultan Babullah - Ternate 2018-06-21 13:03:00 WIT Variabel 5.6 >=10 Cerah - berawan 33 28 1012
85 Oesman Sadik - Labuha 2018-06-21 12:00:00 WIT Timur Laut 9.3 7.0 Hujan ringan 25 24 1012
86 Pattimura - Ambon 2018-06-21 13:00:00 WIT Timur Laut 18.5 >=10 Berawan 29 24 1011
87 Amahai 2018-06-21 12:00:00 WIT Barat Daya 13.0 >=10 Berawan 28 25 1013
88 Bandaneira - Banda 2018-06-21 12:00:00 WIT Timur 24.1 >=10 Cerah - berawan 30 24 1012
89 Seigun - Sorong Kota 2018-06-21 13:00:00 WIT Timur Laut 7.4 7.0 Berawan 28 25 1011
90 Torea - Fak Fak 2018-06-21 13:00:00 WIT Selatan 5.6 8.0 Berawan 28 23 1012
91 Dumatubun - Langgur 2018-06-21 13:00:00 WIT Tenggara 14.8 8.0 Berawan 28 24 1011
92 Utarom - Kaimana 2018-06-21 13:00:00 WIT Tenggara 9.3 8.0 Berawan 29 25 1010
93 Rendani - Manokwari 2018-06-21 13:00:00 WIT Barat Laut 13.0 >=10 Berawan 31 25 1010
94 Nabire 2018-06-21 13:00:00 WIT Tenang >=10 Berawan 31 25 1009
95 Frans Kaisiepo - Biak 2018-06-21 13:00:00 WIT Timur 13.0 >=10 Hujan ringan 28 25 1010
96 Enarotali 2018-06-21 13:00:00 WIT Barat 13.0 >=10 Berawan 23 17 1009
97 Moses Kilangin - Timika 2018-06-21 13:00:00 WIT Selatan 13.0 >=10 Berawan 28 25 1012
98 Mararena / Orai - Sarmi 2018-06-21 12:00:00 WIT Timur 9.3 >=10 Cerah - berawan 30 25 1010
99 Wamena 2018-06-21 13:00:00 WIT Timur Laut 7.4 >=10 Cerah - berawan 26 16 1005
100 Mopah - Merauke 2018-06-21 13:00:00 WIT Selatan 20.4 8.0 Berawan 27 23 1012
101 Sentani - Jayapura 2018-06-21 12:30:00 WIT Tenggara 16.7 >=10 Cerah - berawan 33 26 1009

Satellite Images

Wave Height Forecast

Wind Forecast

Forest Fires